createdAt,value
2019-05-17T00:00:58.182Z,95.73
2019-05-17T00:05:59.863Z,95.22
2019-05-17T00:11:01.530Z,95.00
2019-05-17T00:16:03.351Z,95.32
2019-05-17T00:21:07.509Z,95.73
2019-05-17T00:26:08.298Z,96.11
2019-05-17T00:31:10.174Z,95.91
2019-05-17T00:36:11.755Z,96.56
2019-05-17T00:41:13.439Z,96.43
2019-05-17T00:46:17.169Z,96.65
2019-05-17T00:51:18.537Z,96.70
2019-05-17T00:56:20.060Z,96.87
2019-05-17T01:01:21.736Z,96.78
2019-05-17T01:06:23.203Z,97.31
2019-05-17T01:11:26.962Z,97.30
2019-05-17T01:16:28.415Z,97.53
2019-05-17T01:21:30.005Z,97.28
2019-05-17T01:26:31.479Z,97.12
2019-05-17T01:31:33.250Z,96.59
2019-05-17T01:36:36.876Z,96.88
2019-05-17T01:41:38.308Z,96.61
2019-05-17T01:46:39.847Z,96.74
2019-05-17T01:51:41.335Z,96.80
2019-05-17T01:56:43.323Z,96.68
2019-05-17T02:01:47.386Z,96.72
2019-05-17T02:06:48.991Z,96.64
2019-05-17T02:11:50.471Z,96.32
2019-05-17T02:16:53.227Z,96.06
2019-05-17T02:21:56.874Z,96.16
2019-05-17T02:26:58.192Z,96.14
2019-05-17T02:32:03.553Z,96.26
2019-05-17T02:37:03.758Z,96.04
2019-05-17T02:42:05.433Z,96.05
2019-05-17T02:47:06.948Z,95.96
2019-05-17T02:52:08.577Z,96.28
2019-05-17T02:57:13.806Z,96.28
2019-05-17T03:02:13.566Z,97.06
2019-05-17T03:07:15.038Z,97.16
2019-05-17T03:12:16.513Z,96.91
2019-05-17T03:17:18.088Z,97.09
2019-05-17T03:22:22.858Z,97.26
2019-05-17T03:27:23.488Z,96.95
2019-05-17T03:32:26.895Z,96.95
2019-05-17T03:37:36.435Z,96.83
2019-05-17T03:42:33.154Z,97.02
2019-05-17T03:47:35.048Z,97.18
2019-05-17T03:52:36.670Z,97.10
2019-05-17T03:57:38.416Z,97.49
2019-05-17T04:02:43.779Z,96.71
2019-05-17T04:07:43.978Z,97.00
2019-05-17T04:12:45.648Z,96.80
2019-05-17T04:17:47.223Z,96.21
2019-05-17T04:22:48.952Z,96.34
2019-05-17T04:27:53.376Z,96.44
2019-05-17T04:32:53.794Z,95.96
2019-05-17T04:37:55.500Z,96.18
2019-05-17T04:42:57.160Z,96.23
2019-05-17T04:47:59.034Z,94.84
2019-05-17T04:53:02.624Z,94.65
2019-05-17T04:58:04.513Z,94.62
2019-05-17T05:03:06.214Z,94.35
2019-05-17T05:08:07.895Z,93.33
2019-05-17T05:13:09.464Z,92.31
2019-05-17T05:18:13.223Z,92.71
2019-05-17T05:23:15.167Z,91.84
2019-05-17T05:28:18.444Z,91.27
2019-05-17T05:33:22.101Z,91.17
2019-05-17T05:38:23.364Z,90.68
2019-05-17T05:43:24.942Z,88.95
2019-05-17T05:48:26.410Z,90.26
2019-05-17T05:53:27.895Z,87.92
2019-05-17T05:58:29.366Z,88.56
2019-05-17T06:03:32.028Z,86.59
2019-05-17T06:08:33.783Z,87.57
2019-05-17T06:13:35.260Z,88.50
2019-05-17T06:18:36.744Z,87.89
2019-05-17T06:23:38.206Z,87.32
2019-05-17T06:28:42.529Z,87.39
2019-05-17T06:33:43.971Z,86.79
2019-05-17T06:38:45.520Z,86.54
2019-05-17T06:43:47.095Z,87.38
2019-05-17T06:48:48.566Z,88.40
2019-05-17T06:53:52.235Z,83.85
2019-05-17T06:58:53.566Z,86.71
2019-05-17T07:03:55.146Z,82.59
2019-05-17T07:08:56.626Z,81.54
2019-05-17T07:13:59.769Z,82.21
2019-05-17T07:19:01.393Z,79.90
2019-05-17T07:24:03.065Z,82.69
2019-05-17T07:29:04.551Z,83.34
2019-05-17T07:34:06.035Z,79.66
2019-05-17T07:39:10.578Z,79.80
2019-05-17T07:44:11.114Z,83.43
2019-05-17T07:49:12.639Z,75.95
2019-05-17T07:54:14.215Z,79.26
2019-05-17T07:59:15.894Z,78.57
2019-05-17T08:04:20.377Z,80.91
2019-05-17T08:09:21.280Z,74.97
2019-05-17T08:14:30.101Z,73.06
2019-05-17T08:19:26.189Z,73.21
2019-05-17T08:24:27.678Z,72.47
2019-05-17T08:29:29.818Z,71.77
2019-05-17T08:34:31.582Z,74.86
2019-05-17T08:39:33.172Z,72.01
2019-05-17T08:44:34.767Z,74.11
2019-05-17T08:49:36.391Z,70.77
2019-05-17T08:54:42.558Z,68.30
2019-05-17T08:59:41.303Z,70.71
2019-05-17T09:04:42.861Z,69.66
2019-05-17T09:09:44.337Z,72.04
2019-05-17T09:14:45.895Z,63.86
2019-05-17T09:19:47.508Z,64.37
2019-05-17T09:24:49.997Z,66.97
2019-05-17T09:29:51.673Z,70.18
2019-05-17T09:34:53.198Z,69.25
2019-05-17T09:39:54.679Z,68.54
2019-05-17T09:44:56.268Z,68.17
2019-05-17T09:49:57.750Z,63.50
2019-05-17T09:55:00.429Z,66.73
2019-05-17T10:00:06.154Z,65.95
2019-05-17T10:05:10.889Z,64.24
2019-05-17T10:10:13.243Z,66.04
2019-05-17T10:15:15.330Z,64.32
2019-05-17T10:20:17.205Z,65.44
2019-05-17T10:25:20.097Z,66.43
2019-05-17T10:30:21.964Z,63.40
2019-05-17T10:35:23.572Z,67.87
2019-05-17T10:40:25.845Z,64.15
2019-05-17T10:45:27.431Z,61.65
2019-05-17T10:50:29.772Z,66.73
2019-05-17T10:55:31.602Z,70.31
2019-05-17T11:00:33.426Z,68.40
2019-05-17T11:05:35.160Z,62.72
2019-05-17T11:10:36.745Z,62.80
2019-05-17T11:15:38.323Z,70.33
2019-05-17T11:20:40.204Z,70.17
2019-05-17T11:25:46.003Z,62.59
2019-05-17T11:30:45.058Z,62.46
2019-05-17T11:35:46.582Z,68.78
2019-05-17T11:40:49.845Z,63.48
2019-05-17T11:45:51.543Z,68.34
2019-05-17T11:50:55.121Z,69.61
2019-05-17T11:55:56.716Z,70.84
2019-05-17T12:00:58.419Z,71.86
2019-05-17T12:06:00.138Z,71.02
2019-05-17T12:11:02.305Z,73.12
2019-05-17T12:16:05.030Z,74.94
2019-05-17T12:21:06.987Z,74.47
2019-05-17T12:26:08.511Z,76.84
2019-05-17T12:31:10.083Z,81.37
2019-05-17T12:36:11.655Z,81.71
2019-05-17T12:41:13.140Z,87.04
2019-05-17T12:46:14.631Z,83.37
2019-05-17T12:51:16.104Z,83.82
2019-05-17T12:56:17.742Z,85.35
2019-05-17T13:01:19.251Z,78.18
2019-05-17T13:06:20.774Z,80.83
2019-05-17T13:11:22.300Z,76.93
2019-05-17T13:16:23.932Z,76.75
2019-05-17T13:21:25.516Z,71.78
2019-05-17T13:26:27.049Z,74.08
2019-05-17T13:31:28.529Z,74.80
2019-05-17T13:36:30.004Z,73.16
2019-05-17T13:41:31.484Z,68.79
2019-05-17T13:46:33.847Z,68.56
2019-05-17T13:51:35.569Z,66.15
2019-05-17T13:56:37.287Z,67.05
2019-05-17T14:01:39.873Z,67.87
2019-05-17T14:06:41.588Z,68.75
2019-05-17T14:11:43.173Z,70.70
2019-05-17T14:16:44.665Z,70.92
2019-05-17T14:21:46.266Z,72.28
2019-05-17T14:26:48.901Z,74.85
2019-05-17T14:31:50.420Z,76.80
2019-05-17T14:36:51.905Z,74.63
2019-05-17T14:41:53.491Z,75.23
2019-05-17T14:46:55.007Z,75.06
2019-05-17T14:51:56.490Z,75.80
2019-05-17T14:56:58.060Z,74.27
2019-05-17T15:01:59.534Z,74.04
2019-05-17T15:07:01.710Z,74.76
2019-05-17T15:12:03.730Z,77.92
2019-05-17T15:17:05.371Z,77.85
2019-05-17T15:22:07.141Z,76.30
2019-05-17T15:27:08.802Z,76.92
2019-05-17T15:32:10.312Z,70.20
2019-05-17T15:37:12.011Z,72.67
2019-05-17T15:42:13.805Z,72.36
2019-05-17T15:47:15.513Z,71.54
2019-05-17T15:52:17.380Z,71.02
2019-05-17T15:57:18.955Z,74.82
2019-05-17T16:02:20.558Z,76.06
2019-05-17T16:07:22.303Z,77.46
2019-05-17T16:12:23.935Z,82.08
2019-05-17T16:17:25.541Z,82.47
2019-05-17T16:22:27.038Z,84.89
2019-05-17T16:27:28.773Z,83.81
2019-05-17T16:32:30.295Z,87.57
2019-05-17T16:37:32.013Z,88.79
2019-05-17T16:42:33.907Z,90.79
2019-05-17T16:47:35.519Z,88.96
2019-05-17T16:52:37.216Z,91.08
2019-05-17T16:57:38.816Z,90.72
2019-05-17T17:02:41.559Z,89.54
2019-05-17T17:07:43.276Z,91.34
2019-05-17T17:12:44.785Z,90.95
2019-05-17T17:17:46.586Z,91.40
2019-05-17T17:22:48.201Z,93.46
2019-05-17T17:27:50.143Z,92.05
2019-05-17T17:32:51.934Z,89.84
2019-05-17T17:37:53.495Z,86.36
2019-05-17T17:42:55.075Z,87.86
2019-05-17T17:47:56.685Z,91.16
2019-05-17T17:52:58.584Z,92.46
2019-05-17T17:58:00.233Z,93.80
2019-05-17T18:03:01.900Z,94.34
2019-05-17T18:08:03.714Z,94.92
2019-05-17T18:13:05.413Z,96.27
2019-05-17T18:18:07.277Z,96.55
2019-05-17T18:23:11.291Z,96.45
2019-05-17T18:28:13.238Z,96.71
2019-05-17T18:33:14.975Z,96.82
2019-05-17T18:38:21.680Z,97.28
2019-05-17T18:43:23.289Z,97.70
2019-05-17T18:48:24.926Z,96.91
2019-05-17T18:53:26.502Z,96.73
2019-05-17T18:58:28.095Z,97.32
2019-05-17T19:03:29.726Z,97.56
2019-05-17T19:08:31.358Z,97.06
2019-05-17T19:13:33.041Z,96.91
2019-05-17T19:18:34.636Z,97.41
2019-05-17T19:23:36.117Z,98.13
2019-05-17T19:28:37.694Z,98.49
2019-05-17T19:33:39.161Z,98.53
2019-05-17T19:38:40.698Z,98.30
2019-05-17T19:43:42.173Z,98.15
2019-05-17T19:48:43.645Z,96.60
2019-05-17T19:53:45.227Z,96.43
2019-05-17T19:58:46.702Z,95.96
2019-05-17T20:03:48.215Z,94.28
2019-05-17T20:08:50.155Z,95.17
2019-05-17T20:13:52.740Z,95.46
2019-05-17T20:18:54.330Z,96.20
2019-05-17T20:23:55.807Z,96.29
2019-05-17T20:28:57.278Z,96.13
2019-05-17T20:33:58.764Z,95.93
2019-05-17T20:39:00.310Z,95.98
2019-05-17T20:44:01.884Z,96.31
2019-05-17T20:49:03.696Z,95.57
2019-05-17T20:54:05.531Z,95.22
2019-05-17T20:59:07.144Z,95.19
2019-05-17T21:04:08.632Z,95.98
2019-05-17T21:09:10.158Z,96.86
2019-05-17T21:14:11.847Z,98.08
2019-05-17T21:19:13.319Z,98.42
2019-05-17T21:24:14.791Z,98.50
2019-05-17T21:29:16.378Z,98.52
2019-05-17T21:34:17.899Z,98.02
2019-05-17T21:39:19.418Z,97.85
2019-05-17T21:44:20.883Z,97.93
2019-05-17T21:49:22.346Z,98.36
2019-05-17T21:54:23.938Z,98.69
2019-05-17T21:59:25.416Z,98.52
2019-05-17T22:04:27.257Z,98.72
2019-05-17T22:09:29.011Z,98.54
2019-05-17T22:14:30.730Z,98.40
2019-05-17T22:19:32.259Z,98.53
2019-05-17T22:24:33.835Z,98.42
2019-05-17T22:29:35.313Z,98.50
2019-05-17T22:34:36.791Z,98.84
2019-05-17T22:39:38.376Z,99.40
2019-05-17T22:44:39.847Z,99.89
2019-05-17T22:49:41.530Z,99.84
2019-05-17T22:54:43.008Z,99.78
2019-05-17T22:59:44.484Z,99.91
2019-05-17T23:04:46.083Z,100.00
2019-05-17T23:09:47.615Z,100.00
2019-05-17T23:14:49.084Z,100.00
2019-05-17T23:19:50.563Z,100.00
2019-05-17T23:24:52.040Z,100.00
2019-05-17T23:29:53.512Z,100.00
2019-05-17T23:34:54.987Z,100.00
2019-05-17T23:39:56.543Z,100.00
2019-05-17T23:44:58.022Z,100.00
2019-05-17T23:49:59.503Z,100.00
2019-05-17T23:55:01.078Z,100.00
